createdAt,value
2023-04-29T00:01:14.388Z,55.47
2023-04-29T00:04:16.544Z,55.34
2023-04-29T00:07:18.622Z,55.63
2023-04-29T00:10:20.475Z,55.94
2023-04-29T00:13:22.468Z,55.77
2023-04-29T00:16:30.080Z,56.21
2023-04-29T00:19:31.915Z,56.13
2023-04-29T00:22:33.758Z,56.16
2023-04-29T00:25:36.155Z,55.97
2023-04-29T00:28:37.964Z,56.04
2023-04-29T00:31:39.901Z,56.17
2023-04-29T00:34:42.723Z,55.92
2023-04-29T00:37:44.691Z,55.93
2023-04-29T00:40:46.913Z,56.03
2023-04-29T00:43:48.706Z,55.98
2023-04-29T00:46:50.643Z,56.04
2023-04-29T00:49:52.907Z,56.04
2023-04-29T00:52:55.062Z,55.91
2023-04-29T00:55:57.182Z,55.95
2023-04-29T00:59:00.482Z,56.31
2023-04-29T01:02:04.244Z,56.29
2023-04-29T01:05:06.551Z,56.37
2023-04-29T01:08:27.573Z,56.46
2023-04-29T01:11:55.003Z,56.79
2023-04-29T01:15:17.211Z,56.57
2023-04-29T01:18:30.481Z,56.86
2023-04-29T01:21:32.637Z,56.88
2023-04-29T01:24:34.436Z,57.33
2023-04-29T01:28:02.854Z,57.37
2023-04-29T01:31:28.436Z,57.82
2023-04-29T01:34:50.242Z,57.70
2023-04-29T01:38:16.290Z,57.87
2023-04-29T01:41:42.566Z,57.67
2023-04-29T01:44:51.602Z,57.60
2023-04-29T01:47:58.071Z,57.64
2023-04-29T01:51:01.553Z,57.85
2023-04-29T01:54:05.282Z,57.62
2023-04-29T01:57:07.085Z,57.90
2023-04-29T02:00:27.338Z,57.97
2023-04-29T02:03:29.464Z,57.82
2023-04-29T02:06:32.341Z,57.76
2023-04-29T02:09:37.416Z,57.53
2023-04-29T02:12:44.668Z,57.75
2023-04-29T02:15:46.996Z,57.93
2023-04-29T02:18:49.177Z,58.10
2023-04-29T02:21:51.084Z,57.94
2023-04-29T02:24:53.176Z,58.27
2023-04-29T02:27:54.966Z,57.84
2023-04-29T02:30:57.090Z,57.73
2023-04-29T02:33:58.954Z,57.95
2023-04-29T02:37:00.804Z,57.81
2023-04-29T02:40:03.619Z,58.19
2023-04-29T02:43:05.908Z,58.00
2023-04-29T02:46:07.804Z,58.15
2023-04-29T02:49:12.294Z,58.34
2023-04-29T02:52:14.582Z,58.23
2023-04-29T02:55:17.477Z,58.34
2023-04-29T02:58:19.327Z,58.31
2023-04-29T03:01:22.043Z,58.25
2023-04-29T03:04:24.777Z,58.16
2023-04-29T03:07:28.020Z,58.45
2023-04-29T03:10:29.916Z,58.13
2023-04-29T03:13:31.802Z,58.42
2023-04-29T03:16:33.725Z,58.04
2023-04-29T03:19:37.337Z,57.95
2023-04-29T03:22:39.172Z,57.42
2023-04-29T03:25:41.717Z,57.71
2023-04-29T03:28:43.575Z,57.68
2023-04-29T03:31:45.783Z,57.53
2023-04-29T03:34:49.497Z,57.55
2023-04-29T03:38:00.359Z,57.78
2023-04-29T03:41:05.924Z,58.11
2023-04-29T03:44:07.944Z,58.15
2023-04-29T03:47:09.853Z,58.21
2023-04-29T03:50:12.074Z,58.03
2023-04-29T03:53:15.343Z,58.60
2023-04-29T03:56:17.544Z,58.58
2023-04-29T03:59:19.933Z,58.54
2023-04-29T04:02:23.594Z,58.20
2023-04-29T04:05:26.269Z,58.21
2023-04-29T04:08:33.707Z,58.31
2023-04-29T04:11:51.160Z,58.06
2023-04-29T04:14:54.148Z,57.93
2023-04-29T04:17:56.448Z,58.10
2023-04-29T04:20:58.361Z,57.81
2023-04-29T04:24:01.560Z,57.73
2023-04-29T04:27:05.161Z,57.67
2023-04-29T04:30:12.229Z,57.92
2023-04-29T04:33:14.025Z,57.63
2023-04-29T04:36:20.747Z,57.51
2023-04-29T04:39:22.839Z,57.35
2023-04-29T04:42:25.919Z,57.26
2023-04-29T04:45:31.610Z,57.31
2023-04-29T04:48:34.703Z,57.48
2023-04-29T04:51:36.825Z,57.27
2023-04-29T04:54:38.649Z,56.60
2023-04-29T04:57:48.247Z,56.06
2023-04-29T05:00:52.164Z,54.93
2023-04-29T05:03:55.497Z,54.02
2023-04-29T05:06:57.401Z,53.95
2023-04-29T05:10:03.692Z,53.97
2023-04-29T05:13:07.632Z,53.74
2023-04-29T05:16:09.979Z,53.72
2023-04-29T05:19:15.386Z,53.53
2023-04-29T05:22:17.467Z,53.11
2023-04-29T05:25:19.528Z,53.37
2023-04-29T05:28:22.156Z,53.48
2023-04-29T05:31:24.118Z,53.16
2023-04-29T05:34:26.485Z,52.75
2023-04-29T05:37:30.979Z,52.50
2023-04-29T05:40:58.966Z,52.38
2023-04-29T05:44:00.768Z,52.35
2023-04-29T05:47:02.647Z,52.28
2023-04-29T05:50:05.777Z,52.21
2023-04-29T05:53:07.879Z,52.38
2023-04-29T05:56:09.839Z,52.23
2023-04-29T05:59:12.355Z,52.25
2023-04-29T06:02:14.795Z,51.60
2023-04-29T06:05:20.064Z,51.18
2023-04-29T06:08:42.338Z,51.24
2023-04-29T06:11:54.979Z,50.60
2023-04-29T06:14:57.310Z,50.24
2023-04-29T06:17:59.297Z,49.75
2023-04-29T06:21:01.274Z,50.07
2023-04-29T06:24:03.249Z,49.91
2023-04-29T06:27:06.005Z,49.87
2023-04-29T06:30:08.631Z,50.06
2023-04-29T06:33:10.970Z,50.04
2023-04-29T06:36:13.009Z,49.64
2023-04-29T06:39:50.519Z,49.25
2023-04-29T06:43:02.355Z,49.45
2023-04-29T06:46:20.482Z,49.63
2023-04-29T06:49:31.137Z,49.35
2023-04-29T06:52:34.587Z,48.98
2023-04-29T06:55:36.396Z,49.45
2023-04-29T06:58:38.568Z,48.85
2023-04-29T07:01:44.459Z,48.18
2023-04-29T07:04:47.152Z,47.63
2023-04-29T07:07:50.930Z,47.70
2023-04-29T07:10:57.922Z,47.20
2023-04-29T07:13:59.638Z,46.51
2023-04-29T07:17:05.311Z,46.17
2023-04-29T07:20:09.322Z,45.94
2023-04-29T07:23:11.337Z,46.09
2023-04-29T07:26:15.750Z,46.50
2023-04-29T07:29:19.412Z,46.69
2023-04-29T07:32:21.526Z,46.20
2023-04-29T07:35:24.361Z,45.98
2023-04-29T07:38:26.375Z,45.90
2023-04-29T07:41:28.748Z,45.40
2023-04-29T07:44:30.567Z,45.04
2023-04-29T07:47:32.440Z,44.99
2023-04-29T07:50:37.564Z,44.35
2023-04-29T07:53:39.419Z,43.85
2023-04-29T07:56:41.262Z,43.26
2023-04-29T07:59:43.033Z,42.79
2023-04-29T08:02:46.557Z,42.21
2023-04-29T08:05:53.784Z,41.64
2023-04-29T08:08:56.604Z,41.47
2023-04-29T08:11:58.776Z,41.16
2023-04-29T08:15:00.577Z,41.26
2023-04-29T08:18:02.446Z,40.92
2023-04-29T08:21:04.568Z,40.77
2023-04-29T08:24:06.436Z,40.23
2023-04-29T08:27:08.582Z,39.80
2023-04-29T08:30:10.795Z,39.35
2023-04-29T08:33:13.140Z,39.32
2023-04-29T08:36:15.507Z,38.88
2023-04-29T08:39:18.346Z,38.20
2023-04-29T08:42:36.917Z,38.01
2023-04-29T08:45:40.056Z,37.88
2023-04-29T08:48:45.018Z,37.82
2023-04-29T08:51:53.082Z,37.80
2023-04-29T08:54:54.994Z,37.53
2023-04-29T08:57:57.610Z,37.00
2023-04-29T09:00:59.424Z,36.86
2023-04-29T09:04:36.749Z,36.95
2023-04-29T09:07:39.915Z,36.85
2023-04-29T09:10:43.179Z,36.37
2023-04-29T09:13:44.970Z,36.19
2023-04-29T09:16:47.402Z,36.10
2023-04-29T09:19:49.309Z,35.73
2023-04-29T09:22:52.254Z,35.28
2023-04-29T09:25:57.680Z,35.63
2023-04-29T09:29:18.505Z,35.85
2023-04-29T09:32:21.545Z,36.14
2023-04-29T09:35:28.139Z,35.69
2023-04-29T09:38:29.987Z,36.20
2023-04-29T09:41:32.333Z,36.66
2023-04-29T09:44:37.959Z,37.25
2023-04-29T09:47:39.804Z,37.41
2023-04-29T09:50:43.973Z,37.63
2023-04-29T09:53:45.932Z,37.83
2023-04-29T09:56:52.493Z,37.19
2023-04-29T09:59:54.210Z,36.88
2023-04-29T10:02:59.331Z,36.78
2023-04-29T10:06:02.821Z,36.89
2023-04-29T10:09:07.383Z,36.69
2023-04-29T10:12:09.511Z,36.36
2023-04-29T10:15:20.341Z,36.11
2023-04-29T10:18:30.542Z,35.83
2023-04-29T10:21:32.566Z,35.72
2023-04-29T10:24:37.818Z,35.40
2023-04-29T10:27:43.081Z,35.48
2023-04-29T10:30:45.726Z,35.07
2023-04-29T10:33:48.358Z,35.01
2023-04-29T10:36:50.847Z,34.36
2023-04-29T10:40:16.592Z,34.19
2023-04-29T10:43:26.920Z,33.70
2023-04-29T10:46:28.842Z,32.71
2023-04-29T10:49:36.915Z,32.07
2023-04-29T10:52:55.938Z,31.71
2023-04-29T10:56:00.166Z,31.53
2023-04-29T10:59:01.916Z,31.50
2023-04-29T11:02:03.713Z,31.73
2023-04-29T11:05:10.591Z,31.64
2023-04-29T11:08:13.832Z,31.95
2023-04-29T11:11:15.975Z,31.65
2023-04-29T11:14:24.090Z,31.09
2023-04-29T11:17:27.157Z,31.22
2023-04-29T11:20:30.217Z,31.01
2023-04-29T11:23:45.577Z,30.93
2023-04-29T11:26:48.975Z,30.45
2023-04-29T11:29:52.450Z,30.59
2023-04-29T11:32:54.510Z,31.01
2023-04-29T11:35:57.041Z,30.52
2023-04-29T11:39:01.310Z,29.75
2023-04-29T11:42:06.948Z,29.94
2023-04-29T11:45:09.276Z,30.01
2023-04-29T11:48:21.729Z,29.77
2023-04-29T11:51:23.637Z,29.32
2023-04-29T11:54:27.105Z,29.81
2023-04-29T11:57:29.126Z,30.16
2023-04-29T12:00:31.608Z,30.22
2023-04-29T12:03:34.181Z,30.14
2023-04-29T12:06:37.005Z,30.62
2023-04-29T12:09:43.839Z,30.50
2023-04-29T12:12:46.611Z,30.50
2023-04-29T12:15:50.511Z,30.71
2023-04-29T12:18:53.516Z,30.95
2023-04-29T12:21:59.348Z,30.87
2023-04-29T12:25:04.282Z,31.33
2023-04-29T12:28:08.366Z,31.46
2023-04-29T12:31:13.655Z,31.34
2023-04-29T12:34:15.467Z,31.20
2023-04-29T12:37:17.897Z,31.42
2023-04-29T12:40:21.052Z,31.10
2023-04-29T12:43:30.550Z,30.88
2023-04-29T12:46:38.398Z,30.69
2023-04-29T12:49:45.451Z,31.09
2023-04-29T12:52:47.222Z,31.11
2023-04-29T12:55:49.083Z,30.90
2023-04-29T12:58:50.876Z,30.67
2023-04-29T13:01:54.701Z,30.93
2023-04-29T13:04:56.694Z,30.51
2023-04-29T13:07:58.871Z,30.34
2023-04-29T13:11:00.773Z,30.23
2023-04-29T13:14:02.583Z,30.20
2023-04-29T13:17:04.686Z,30.26
2023-04-29T13:20:10.640Z,30.14
2023-04-29T13:23:13.050Z,29.99
2023-04-29T13:26:14.880Z,30.13
2023-04-29T13:29:16.880Z,29.69
2023-04-29T13:32:19.125Z,29.24
2023-04-29T13:35:21.106Z,29.49
2023-04-29T13:38:23.073Z,29.58
2023-04-29T13:41:26.589Z,29.94
2023-04-29T13:44:36.005Z,29.85
2023-04-29T13:48:06.663Z,29.72
2023-04-29T14:00:55.152Z,29.33
2023-04-29T14:03:47.895Z,29.58
2023-04-29T14:06:50.042Z,29.59
2023-04-29T14:09:51.958Z,29.39
2023-04-29T14:12:53.715Z,29.16
2023-04-29T14:15:56.706Z,29.41
2023-04-29T14:18:59.690Z,29.17
2023-04-29T14:22:03.040Z,29.20
2023-04-29T14:25:08.309Z,29.49
2023-04-29T14:28:11.587Z,29.59
2023-04-29T14:31:14.012Z,30.09
2023-04-29T14:34:16.003Z,30.13
2023-04-29T14:37:17.879Z,30.14
2023-04-29T14:40:20.005Z,30.20
2023-04-29T14:43:22.080Z,30.64
2023-04-29T14:46:24.993Z,30.67
2023-04-29T14:49:27.444Z,31.02
2023-04-29T14:52:30.654Z,31.24
2023-04-29T14:55:32.436Z,31.14
2023-04-29T14:58:34.348Z,30.78
2023-04-29T15:01:36.660Z,31.08
2023-04-29T15:04:39.886Z,31.47
2023-04-29T15:07:42.316Z,31.70
2023-04-29T15:10:47.945Z,31.27
2023-04-29T15:13:50.733Z,32.53
2023-04-29T15:16:52.550Z,32.04
2023-04-29T15:19:54.368Z,32.15
2023-04-29T15:22:56.235Z,32.33
2023-04-29T15:25:58.088Z,32.66
2023-04-29T15:28:59.871Z,33.43
2023-04-29T15:32:01.823Z,33.50
2023-04-29T15:35:04.825Z,33.71
2023-04-29T15:38:07.968Z,33.78
2023-04-29T15:41:10.078Z,33.35
2023-04-29T15:44:12.023Z,33.48
2023-04-29T15:47:14.916Z,33.26
2023-04-29T15:50:16.668Z,34.12
2023-04-29T15:53:18.441Z,33.81
2023-04-29T15:56:21.034Z,33.72
2023-04-29T15:59:22.886Z,34.16
2023-04-29T16:02:24.778Z,34.12
2023-04-29T16:05:26.915Z,33.72
2023-04-29T16:08:28.761Z,32.98
2023-04-29T16:11:31.962Z,33.25
2023-04-29T16:14:33.887Z,33.53
2023-04-29T16:17:35.682Z,33.60
2023-04-29T16:20:37.469Z,33.43
2023-04-29T16:23:39.248Z,33.55
2023-04-29T16:26:41.505Z,33.80
2023-04-29T16:29:43.397Z,34.00
2023-04-29T16:32:45.140Z,34.22
2023-04-29T16:35:47.034Z,34.39
2023-04-29T16:38:49.236Z,34.57
2023-04-29T16:41:51.591Z,34.85
2023-04-29T16:44:53.398Z,35.04
2023-04-29T16:47:55.322Z,35.30
2023-04-29T16:50:58.429Z,34.87
2023-04-29T16:54:00.286Z,35.38
2023-04-29T16:57:02.512Z,36.06
2023-04-29T17:00:04.829Z,35.71
2023-04-29T17:03:06.777Z,35.44
2023-04-29T17:06:09.274Z,35.56
2023-04-29T17:09:11.537Z,35.69
2023-04-29T17:12:13.612Z,35.90
2023-04-29T17:15:16.012Z,35.95
2023-04-29T17:18:19.949Z,36.37
2023-04-29T17:21:24.856Z,35.93
2023-04-29T17:24:26.684Z,36.48
2023-04-29T17:27:28.459Z,36.51
2023-04-29T17:30:30.225Z,36.88
2023-04-29T17:33:35.588Z,37.55
2023-04-29T17:36:37.461Z,37.64
2023-04-29T17:39:39.442Z,38.33
2023-04-29T17:42:41.663Z,38.37
2023-04-29T17:45:43.607Z,38.64
2023-04-29T17:48:45.436Z,38.65
2023-04-29T17:51:47.332Z,39.18
2023-04-29T17:54:49.122Z,39.15
2023-04-29T17:57:51.088Z,39.55
2023-04-29T18:00:53.074Z,39.73
2023-04-29T18:03:54.895Z,40.32
2023-04-29T18:06:56.705Z,40.91
2023-04-29T18:09:58.656Z,41.46
2023-04-29T18:13:00.690Z,41.85
2023-04-29T18:16:02.441Z,42.17
2023-04-29T18:19:04.685Z,42.67
2023-04-29T18:22:07.480Z,43.27
2023-04-29T18:25:11.159Z,43.72
2023-04-29T18:28:23.474Z,44.24
2023-04-29T18:31:26.604Z,44.02
2023-04-29T18:34:28.466Z,44.39
2023-04-29T18:37:30.985Z,44.47
2023-04-29T18:40:32.794Z,44.68
2023-04-29T18:43:34.935Z,44.42
2023-04-29T18:46:36.826Z,44.52
2023-04-29T18:49:38.761Z,44.74
2023-04-29T18:52:41.010Z,44.76
2023-04-29T18:55:42.805Z,45.21
2023-04-29T18:58:44.618Z,45.25
2023-04-29T19:01:47.680Z,45.40
2023-04-29T19:04:50.389Z,45.55
2023-04-29T19:07:52.212Z,45.76
2023-04-29T19:10:54.137Z,45.77
2023-04-29T19:13:56.179Z,45.90
2023-04-29T19:16:57.969Z,46.15
2023-04-29T19:20:00.168Z,46.55
2023-04-29T19:23:02.750Z,46.65
2023-04-29T19:26:04.610Z,46.54
2023-04-29T19:29:07.294Z,46.14
2023-04-29T19:32:09.147Z,45.85
2023-04-29T19:35:12.304Z,45.59
2023-04-29T19:38:14.762Z,45.63
2023-04-29T19:41:16.803Z,45.65
2023-04-29T19:44:18.627Z,45.68
2023-04-29T19:47:20.401Z,46.20
2023-04-29T19:50:22.723Z,45.92
2023-04-29T19:53:24.758Z,46.10
2023-04-29T19:56:27.039Z,46.11
2023-04-29T19:59:30.263Z,46.25
2023-04-29T20:02:33.028Z,46.36
2023-04-29T20:05:35.158Z,46.61
2023-04-29T20:08:37.368Z,46.82
2023-04-29T20:11:39.228Z,47.14
2023-04-29T20:14:41.311Z,47.49
2023-04-29T20:17:43.148Z,47.66
2023-04-29T20:20:45.498Z,47.88
2023-04-29T20:23:47.210Z,47.98
2023-04-29T20:26:48.988Z,48.01
2023-04-29T20:29:51.131Z,48.39
2023-04-29T20:32:53.119Z,48.47
2023-04-29T20:35:54.977Z,48.65
2023-04-29T20:38:57.324Z,48.35
2023-04-29T20:41:59.187Z,48.58
2023-04-29T20:45:31.418Z,49.02
2023-04-29T20:48:36.668Z,48.96
2023-04-29T20:51:39.481Z,48.99
2023-04-29T20:54:41.736Z,49.17
2023-04-29T20:57:43.614Z,49.16
2023-04-29T21:00:45.920Z,49.44
2023-04-29T21:03:47.646Z,49.72
2023-04-29T21:06:52.569Z,49.93
2023-04-29T21:09:54.759Z,49.66
2023-04-29T21:12:56.716Z,49.81
2023-04-29T21:15:58.607Z,50.00
2023-04-29T21:19:00.473Z,50.08
2023-04-29T21:22:02.299Z,50.15
2023-04-29T21:25:05.524Z,50.42
2023-04-29T21:28:07.341Z,50.69
2023-04-29T21:31:15.280Z,51.04
2023-04-29T21:34:17.071Z,50.79
2023-04-29T21:37:18.825Z,50.97
2023-04-29T21:40:20.683Z,51.44
2023-04-29T21:43:22.657Z,51.50
2023-04-29T21:46:28.286Z,51.90
2023-04-29T21:49:30.817Z,51.76
2023-04-29T21:52:35.202Z,52.14
2023-04-29T21:55:38.102Z,52.41
2023-04-29T21:58:41.006Z,52.81
2023-04-29T22:01:44.572Z,53.46
2023-04-29T22:04:46.508Z,54.00
2023-04-29T22:07:48.321Z,54.67
2023-04-29T22:10:50.497Z,55.07
2023-04-29T22:13:52.407Z,55.39
2023-04-29T22:16:54.227Z,55.73
2023-04-29T22:19:56.238Z,56.15
2023-04-29T22:22:58.190Z,56.77
2023-04-29T22:26:00.001Z,56.79
2023-04-29T22:29:01.849Z,56.94
2023-04-29T22:32:04.002Z,57.01
2023-04-29T22:35:06.419Z,57.39
2023-04-29T22:38:08.265Z,57.66
2023-04-29T22:41:11.712Z,57.97
2023-04-29T22:44:13.887Z,58.00
2023-04-29T22:47:16.089Z,58.38
2023-04-29T22:50:17.860Z,58.58
2023-04-29T22:53:21.268Z,58.90
2023-04-29T22:56:24.586Z,58.97
2023-04-29T22:59:26.452Z,59.02
2023-04-29T23:02:29.709Z,58.99
2023-04-29T23:05:32.463Z,58.65
2023-04-29T23:08:34.285Z,58.75
2023-04-29T23:11:37.422Z,58.41
2023-04-29T23:14:39.229Z,58.15
2023-04-29T23:17:41.203Z,57.85
2023-04-29T23:20:47.259Z,57.72
2023-04-29T23:23:49.144Z,57.48
2023-04-29T23:26:51.131Z,57.84
2023-04-29T23:29:53.126Z,57.48
2023-04-29T23:32:55.200Z,57.51
2023-04-29T23:35:57.270Z,57.37
2023-04-29T23:38:59.336Z,57.16
2023-04-29T23:42:01.149Z,57.23
2023-04-29T23:45:03.071Z,57.37
2023-04-29T23:48:04.953Z,57.66
2023-04-29T23:51:06.928Z,57.61
2023-04-29T23:54:08.849Z,57.53
2023-04-29T23:57:10.848Z,57.30
